createdAt,value
2023-03-27T00:00:47.989Z,1008.24
2023-03-27T00:01:48.025Z,1008.27
2023-03-27T00:02:48.108Z,1008.29
2023-03-27T00:03:48.087Z,1008.33
2023-03-27T00:04:47.976Z,1008.32
2023-03-27T00:05:47.976Z,1008.36
2023-03-27T00:06:47.957Z,1008.39
2023-03-27T00:07:47.978Z,1008.42
2023-03-27T00:08:47.945Z,1008.45
2023-03-27T00:09:47.943Z,1008.39
2023-03-27T00:10:47.939Z,1008.45
2023-03-27T00:11:47.956Z,1008.51
2023-03-27T00:12:47.939Z,1008.49
2023-03-27T00:13:50.277Z,1008.50
2023-03-27T00:14:47.921Z,1008.48
2023-03-27T00:15:47.933Z,1008.53
2023-03-27T00:16:47.934Z,1008.52
2023-03-27T00:17:47.990Z,1008.58
2023-03-27T00:18:47.903Z,1008.55
2023-03-27T00:19:48.061Z,1008.57
2023-03-27T00:20:47.910Z,1008.59
2023-03-27T00:21:47.904Z,1008.57
2023-03-27T00:22:47.875Z,1008.60
2023-03-27T00:23:47.894Z,1008.62
2023-03-27T00:24:47.875Z,1008.64
2023-03-27T00:25:47.879Z,1008.67
2023-03-27T00:26:47.871Z,1008.68
2023-03-27T00:27:47.879Z,1008.70
2023-03-27T00:28:47.863Z,1008.73
2023-03-27T00:29:47.860Z,1008.78
2023-03-27T00:30:47.899Z,1008.82
2023-03-27T00:31:47.841Z,1008.92
2023-03-27T00:32:47.888Z,1008.92
2023-03-27T00:33:47.844Z,1008.92
2023-03-27T00:34:47.833Z,1008.94
2023-03-27T00:35:47.886Z,1008.95
2023-03-27T00:36:47.838Z,1008.98
2023-03-27T00:37:47.812Z,1009.00
2023-03-27T00:38:47.801Z,1009.03
2023-03-27T00:39:47.825Z,1009.05
2023-03-27T00:40:47.858Z,1009.03
2023-03-27T00:41:47.809Z,1009.07
2023-03-27T00:42:47.797Z,1009.04
2023-03-27T00:43:47.795Z,1009.06
2023-03-27T00:44:47.791Z,1009.09
2023-03-27T00:45:47.804Z,1009.11
2023-03-27T00:46:47.800Z,1009.13
2023-03-27T00:47:47.832Z,1009.15
2023-03-27T00:48:47.787Z,1009.12
2023-03-27T00:49:47.754Z,1009.07
2023-03-27T00:50:47.760Z,1009.08
2023-03-27T00:51:47.769Z,1009.05
2023-03-27T00:52:47.760Z,1009.07
2023-03-27T00:53:47.756Z,1009.07
2023-03-27T00:54:47.739Z,1009.12
2023-03-27T00:55:47.752Z,1009.17
2023-03-27T00:56:47.741Z,1009.14
2023-03-27T00:57:47.724Z,1009.18
2023-03-27T00:58:47.724Z,1009.20
2023-03-27T00:59:47.728Z,1009.21
2023-03-27T01:00:47.719Z,1009.20
2023-03-27T01:01:50.367Z,1009.24
2023-03-27T01:03:29.661Z,1009.19
2023-03-27T01:04:29.554Z,1009.20
2023-03-27T01:05:29.563Z,1009.22
2023-03-27T01:06:29.560Z,1009.25
2023-03-27T01:07:29.584Z,1009.26
2023-03-27T01:08:29.530Z,1009.29
2023-03-27T01:09:29.556Z,1009.31
2023-03-27T01:10:29.534Z,1009.31
2023-03-27T01:11:29.521Z,1009.27
2023-03-27T01:12:29.520Z,1009.32
2023-03-27T01:13:29.515Z,1009.32
2023-03-27T01:14:29.505Z,1009.31
2023-03-27T01:15:29.538Z,1009.34
2023-03-27T01:16:29.512Z,1009.36
2023-03-27T01:17:29.537Z,1009.39
2023-03-27T01:18:29.497Z,1009.40
2023-03-27T01:19:29.500Z,1009.41
2023-03-27T01:20:29.479Z,1009.42
2023-03-27T01:21:29.480Z,1009.45
2023-03-27T01:22:29.483Z,1009.48
2023-03-27T01:23:35.832Z,1009.55
2023-03-27T01:24:29.471Z,1009.52
2023-03-27T01:25:29.466Z,1009.56
2023-03-27T01:26:35.634Z,1009.56
2023-03-27T01:27:29.466Z,1009.58
2023-03-27T01:28:29.440Z,1009.62
2023-03-27T01:29:29.434Z,1009.66
2023-03-27T01:30:29.450Z,1009.67
2023-03-27T01:31:29.491Z,1009.68
2023-03-27T01:32:29.493Z,1009.69
2023-03-27T01:33:29.433Z,1009.74
2023-03-27T01:34:29.429Z,1009.77
2023-03-27T01:35:29.443Z,1009.75
2023-03-27T01:36:29.411Z,1009.81
2023-03-27T01:37:29.413Z,1009.77
2023-03-27T01:38:29.407Z,1009.79
2023-03-27T01:39:29.417Z,1009.76
2023-03-27T01:40:29.398Z,1009.76
2023-03-27T01:41:29.385Z,1009.78
2023-03-27T01:42:29.394Z,1009.83
2023-03-27T01:43:29.384Z,1009.83
2023-03-27T01:44:42.707Z,1009.85
2023-03-27T01:45:29.369Z,1009.86
2023-03-27T01:46:29.435Z,1009.83
2023-03-27T01:47:29.381Z,1009.85
2023-03-27T01:48:29.373Z,1009.84
2023-03-27T01:49:29.345Z,1009.85
2023-03-27T01:50:29.348Z,1009.87
2023-03-27T01:51:29.348Z,1009.88
2023-03-27T01:52:29.357Z,1009.94
2023-03-27T01:53:29.335Z,1009.90
2023-03-27T01:54:29.332Z,1009.94
2023-03-27T01:55:29.344Z,1009.97
2023-03-27T01:56:29.327Z,1009.94
2023-03-27T01:57:29.327Z,1009.99
2023-03-27T01:58:29.315Z,1010.01
2023-03-27T01:59:29.307Z,1009.99
2023-03-27T02:00:52.486Z,1010.07
2023-03-27T02:01:29.357Z,1010.06
2023-03-27T02:02:29.328Z,1010.07
2023-03-27T02:03:29.318Z,1010.06
2023-03-27T02:04:29.326Z,1010.11
2023-03-27T02:05:29.290Z,1010.06
2023-03-27T02:06:29.260Z,1010.14
2023-03-27T02:07:29.275Z,1010.13
2023-03-27T02:08:29.264Z,1010.15
2023-03-27T02:09:29.252Z,1010.17
2023-03-27T02:10:29.286Z,1010.16
2023-03-27T02:11:29.276Z,1010.18
2023-03-27T02:12:29.236Z,1010.18
2023-03-27T02:13:29.230Z,1010.19
2023-03-27T02:14:29.233Z,1010.22
2023-03-27T02:15:29.252Z,1010.27
2023-03-27T02:16:29.240Z,1010.26
2023-03-27T02:17:29.260Z,1010.28
2023-03-27T02:18:29.209Z,1010.23
2023-03-27T02:19:29.216Z,1010.27
2023-03-27T02:20:29.191Z,1010.34
2023-03-27T02:21:29.204Z,1010.33
2023-03-27T02:22:38.050Z,1010.34
2023-03-27T02:23:29.196Z,1010.34
2023-03-27T02:24:29.194Z,1010.32
2023-03-27T02:25:29.203Z,1010.41
2023-03-27T02:26:29.185Z,1010.39
2023-03-27T02:27:29.192Z,1010.42
2023-03-27T02:28:29.202Z,1010.39
2023-03-27T02:29:29.182Z,1010.47
2023-03-27T02:30:29.162Z,1010.50
2023-03-27T02:31:33.219Z,1010.50
2023-03-27T02:32:29.252Z,1010.52
2023-03-27T02:33:29.133Z,1010.52
2023-03-27T02:34:29.158Z,1010.57
2023-03-27T02:35:29.143Z,1010.56
2023-03-27T02:36:29.143Z,1010.55
2023-03-27T02:37:32.342Z,1010.59
2023-03-27T02:38:29.133Z,1010.62
2023-03-27T02:39:29.111Z,1010.62
2023-03-27T02:40:29.109Z,1010.64
2023-03-27T02:41:29.120Z,1010.64
2023-03-27T02:42:29.125Z,1010.68
2023-03-27T02:43:29.123Z,1010.74
2023-03-27T02:44:29.101Z,1010.74
2023-03-27T02:45:29.132Z,1010.76
2023-03-27T02:46:29.152Z,1010.80
2023-03-27T02:47:29.151Z,1010.82
2023-03-27T02:48:29.065Z,1010.86
2023-03-27T02:49:29.081Z,1010.90
2023-03-27T02:50:29.073Z,1010.87
2023-03-27T02:51:29.071Z,1010.88
2023-03-27T02:52:29.071Z,1010.91
2023-03-27T02:53:29.039Z,1010.95
2023-03-27T02:54:29.046Z,1010.92
2023-03-27T02:55:29.040Z,1010.96
2023-03-27T02:56:29.041Z,1010.91
2023-03-27T02:57:29.063Z,1010.92
2023-03-27T02:58:29.029Z,1010.92
2023-03-27T02:59:29.080Z,1010.93
2023-03-27T03:00:29.025Z,1010.94
2023-03-27T03:01:29.049Z,1010.97
2023-03-27T03:02:29.123Z,1011.00
2023-03-27T03:03:29.064Z,1010.98
2023-03-27T03:04:29.014Z,1010.99
2023-03-27T03:05:29.029Z,1011.01
2023-03-27T03:06:29.004Z,1011.06
2023-03-27T03:07:29.025Z,1011.08
2023-03-27T03:08:29.017Z,1011.03
2023-03-27T03:09:29.000Z,1011.06
2023-03-27T03:10:28.976Z,1011.09
2023-03-27T03:11:29.007Z,1011.14
2023-03-27T03:12:29.013Z,1011.16
2023-03-27T03:13:29.041Z,1011.17
2023-03-27T03:14:28.982Z,1011.15
2023-03-27T03:15:29.009Z,1011.23
2023-03-27T03:16:29.027Z,1011.19
2023-03-27T03:17:28.961Z,1011.23
2023-03-27T03:18:29.010Z,1011.23
2023-03-27T03:19:28.924Z,1011.20
2023-03-27T03:20:29.029Z,1011.22
2023-03-27T03:21:28.907Z,1011.20
2023-03-27T03:22:28.936Z,1011.21
2023-03-27T03:23:28.900Z,1011.24
2023-03-27T03:24:28.923Z,1011.30
2023-03-27T03:25:28.914Z,1011.32
2023-03-27T03:26:28.902Z,1011.35
2023-03-27T03:27:28.924Z,1011.36
2023-03-27T03:28:28.892Z,1011.37
2023-03-27T03:29:28.882Z,1011.43
2023-03-27T03:30:28.877Z,1011.42
2023-03-27T03:31:28.953Z,1011.44
2023-03-27T03:32:28.871Z,1011.49
2023-03-27T03:33:28.856Z,1011.49
2023-03-27T03:34:28.858Z,1011.48
2023-03-27T03:35:28.884Z,1011.51
2023-03-27T03:36:28.863Z,1011.55
2023-03-27T03:37:28.914Z,1011.59
2023-03-27T03:38:28.850Z,1011.54
2023-03-27T03:39:28.852Z,1011.60
2023-03-27T03:40:28.838Z,1011.61
2023-03-27T03:41:28.814Z,1011.65
2023-03-27T03:42:28.822Z,1011.64
2023-03-27T03:43:28.817Z,1011.64
2023-03-27T03:44:28.828Z,1011.65
2023-03-27T03:45:28.791Z,1011.71
2023-03-27T03:46:28.847Z,1011.70
2023-03-27T03:47:28.917Z,1011.70
2023-03-27T03:48:28.816Z,1011.72
2023-03-27T03:49:28.779Z,1011.76
2023-03-27T03:50:28.799Z,1011.74
2023-03-27T03:51:28.777Z,1011.73
2023-03-27T03:52:28.761Z,1011.73
2023-03-27T03:53:28.779Z,1011.75
2023-03-27T03:54:28.765Z,1011.71
2023-03-27T03:55:28.746Z,1011.72
2023-03-27T03:56:28.745Z,1011.74
2023-03-27T03:57:28.734Z,1011.76
2023-03-27T03:58:34.441Z,1011.75
2023-03-27T03:59:28.719Z,1011.82
2023-03-27T04:00:28.753Z,1011.81
2023-03-27T04:01:28.880Z,1011.80
2023-03-27T04:02:28.843Z,1011.83
2023-03-27T04:03:28.884Z,1011.88
2023-03-27T04:04:28.715Z,1011.84
2023-03-27T04:05:28.709Z,1011.86
2023-03-27T04:06:28.693Z,1011.86
2023-03-27T04:07:28.701Z,1011.86
2023-03-27T04:08:28.690Z,1011.93
2023-03-27T04:09:28.678Z,1011.91
2023-03-27T04:10:28.678Z,1011.95
2023-03-27T04:11:28.695Z,1011.94
2023-03-27T04:12:28.659Z,1011.90
2023-03-27T04:13:28.676Z,1011.94
2023-03-27T04:14:28.664Z,1011.94
2023-03-27T04:15:28.644Z,1011.98
2023-03-27T04:16:28.770Z,1012.00
2023-03-27T04:17:28.728Z,1012.01
2023-03-27T04:18:28.734Z,1012.05
2023-03-27T04:19:28.660Z,1012.05
2023-03-27T04:20:28.625Z,1012.04
2023-03-27T04:21:28.622Z,1012.07
2023-03-27T04:22:28.624Z,1012.09
2023-03-27T04:23:28.601Z,1012.12
2023-03-27T04:24:28.598Z,1012.16
2023-03-27T04:25:28.624Z,1012.16
2023-03-27T04:26:28.680Z,1012.22
2023-03-27T04:27:28.594Z,1012.24
2023-03-27T04:28:28.592Z,1012.28
2023-03-27T04:29:28.570Z,1012.31
2023-03-27T04:30:28.575Z,1012.31
2023-03-27T04:31:28.642Z,1012.33
2023-03-27T04:32:28.609Z,1012.36
2023-03-27T04:33:30.874Z,1012.38
2023-03-27T04:34:28.568Z,1012.42
2023-03-27T04:35:28.593Z,1012.42
2023-03-27T04:36:30.738Z,1012.44
2023-03-27T04:37:28.551Z,1012.48
2023-03-27T04:38:28.557Z,1012.51
2023-03-27T04:39:28.538Z,1012.50
2023-03-27T04:40:28.522Z,1012.46
2023-03-27T04:41:28.536Z,1012.48
2023-03-27T04:42:28.530Z,1012.52
2023-03-27T04:43:28.506Z,1012.52
2023-03-27T04:44:28.545Z,1012.51
2023-03-27T04:45:28.499Z,1012.51
2023-03-27T04:46:28.546Z,1012.55
2023-03-27T04:47:28.548Z,1012.53
2023-03-27T04:48:28.494Z,1012.57
2023-03-27T04:49:28.491Z,1012.56
2023-03-27T04:50:28.482Z,1012.57
2023-03-27T04:51:28.505Z,1012.56
2023-03-27T04:52:28.588Z,1012.58
2023-03-27T04:53:28.458Z,1012.57
2023-03-27T04:54:28.487Z,1012.61
2023-03-27T04:55:28.463Z,1012.62
2023-03-27T04:56:28.465Z,1012.62
2023-03-27T04:57:28.465Z,1012.66
2023-03-27T04:58:28.468Z,1012.69
2023-03-27T04:59:28.442Z,1012.72
2023-03-27T05:00:28.433Z,1012.69
2023-03-27T05:01:28.510Z,1012.71
2023-03-27T05:02:28.474Z,1012.67
2023-03-27T05:03:28.481Z,1012.71
2023-03-27T05:04:28.445Z,1012.73
2023-03-27T05:05:28.426Z,1012.72
2023-03-27T05:06:28.406Z,1012.75
2023-03-27T05:07:28.428Z,1012.79
2023-03-27T05:08:28.434Z,1012.78
2023-03-27T05:09:28.393Z,1012.82
2023-03-27T05:10:28.393Z,1012.86
2023-03-27T05:11:28.396Z,1012.83
2023-03-27T05:12:28.390Z,1012.87
2023-03-27T05:13:28.378Z,1012.88
2023-03-27T05:14:28.386Z,1012.90
2023-03-27T05:15:28.359Z,1012.93
2023-03-27T05:16:28.390Z,1012.93
2023-03-27T05:17:28.385Z,1012.92
2023-03-27T05:18:28.380Z,1012.93
2023-03-27T05:19:28.368Z,1012.92
2023-03-27T05:20:28.361Z,1012.93
2023-03-27T05:21:28.360Z,1012.94
2023-03-27T05:22:28.355Z,1012.94
2023-03-27T05:23:28.370Z,1012.94
2023-03-27T05:24:28.342Z,1012.96
2023-03-27T05:25:28.331Z,1013.01
2023-03-27T05:26:28.336Z,1013.02
2023-03-27T05:27:28.333Z,1013.01
2023-03-27T05:28:28.319Z,1013.02
2023-03-27T05:29:28.309Z,1013.15
2023-03-27T05:30:28.383Z,1013.13
2023-03-27T05:31:28.416Z,1013.14
2023-03-27T05:32:28.357Z,1013.13
2023-03-27T05:33:28.288Z,1013.15
2023-03-27T05:34:28.294Z,1013.16
2023-03-27T05:35:28.580Z,1013.21
2023-03-27T05:36:28.299Z,1013.24
2023-03-27T05:37:28.289Z,1013.28
2023-03-27T05:38:28.285Z,1013.28
2023-03-27T05:39:28.356Z,1013.25
2023-03-27T05:40:28.275Z,1013.29
2023-03-27T05:41:28.255Z,1013.30
2023-03-27T05:42:28.256Z,1013.28
2023-03-27T05:43:28.249Z,1013.30
2023-03-27T05:44:28.255Z,1013.35
2023-03-27T05:45:28.299Z,1013.32
2023-03-27T05:46:28.312Z,1013.36
2023-03-27T05:47:28.285Z,1013.42
2023-03-27T05:48:28.235Z,1013.39
2023-03-27T05:49:28.246Z,1013.43
2023-03-27T05:50:28.264Z,1013.44
2023-03-27T05:51:28.235Z,1013.45
2023-03-27T05:52:28.454Z,1013.51
2023-03-27T05:53:28.991Z,1013.52
2023-03-27T05:54:28.223Z,1013.49
2023-03-27T05:55:28.237Z,1013.50
2023-03-27T05:56:28.222Z,1013.49
2023-03-27T05:57:28.198Z,1013.49
2023-03-27T05:58:28.213Z,1013.47
2023-03-27T05:59:28.210Z,1013.48
2023-03-27T06:00:28.196Z,1013.47
2023-03-27T06:01:28.197Z,1013.50
2023-03-27T06:02:28.235Z,1013.52
2023-03-27T06:03:28.338Z,1013.51
2023-03-27T06:04:28.243Z,1013.56
2023-03-27T06:05:28.178Z,1013.58
2023-03-27T06:06:28.180Z,1013.61
2023-03-27T06:07:28.179Z,1013.61
2023-03-27T06:08:28.185Z,1013.63
2023-03-27T06:09:28.179Z,1013.62
2023-03-27T06:10:28.160Z,1013.61
2023-03-27T06:11:28.178Z,1013.64
2023-03-27T06:12:28.163Z,1013.65
2023-03-27T06:13:28.152Z,1013.63
2023-03-27T06:14:28.149Z,1013.62
2023-03-27T06:15:28.195Z,1013.64
2023-03-27T06:16:28.185Z,1013.64
2023-03-27T06:17:28.171Z,1013.64
2023-03-27T06:18:28.143Z,1013.65
2023-03-27T06:19:28.141Z,1013.70
2023-03-27T06:20:28.138Z,1013.66
2023-03-27T06:21:28.122Z,1013.68
2023-03-27T06:22:28.125Z,1013.76
2023-03-27T06:23:28.108Z,1013.78
2023-03-27T06:24:28.117Z,1013.80
2023-03-27T06:25:28.136Z,1013.80
2023-03-27T06:26:28.108Z,1013.82
2023-03-27T06:27:28.105Z,1013.82
2023-03-27T06:28:28.094Z,1013.84
2023-03-27T06:29:28.089Z,1013.83
2023-03-27T06:30:28.086Z,1013.86
2023-03-27T06:31:28.172Z,1013.86
2023-03-27T06:32:28.130Z,1013.93
2023-03-27T06:33:28.077Z,1013.96
2023-03-27T06:34:28.091Z,1013.96
2023-03-27T06:35:28.066Z,1013.96
2023-03-27T06:36:28.105Z,1013.97
2023-03-27T06:37:28.057Z,1014.03
2023-03-27T06:38:28.068Z,1014.04
2023-03-27T06:39:28.054Z,1014.05
2023-03-27T06:40:28.295Z,1014.08
2023-03-27T06:41:28.038Z,1014.09
2023-03-27T06:42:28.055Z,1014.10
2023-03-27T06:43:28.071Z,1014.09
2023-03-27T06:44:28.041Z,1014.08
2023-03-27T06:45:28.041Z,1014.13
2023-03-27T06:46:42.662Z,1014.17
2023-03-27T06:47:28.041Z,1014.20
2023-03-27T06:48:28.021Z,1014.19
2023-03-27T06:49:28.037Z,1014.22
2023-03-27T06:50:28.002Z,1014.22
2023-03-27T06:51:28.016Z,1014.26
2023-03-27T06:52:27.994Z,1014.23
2023-03-27T06:53:29.144Z,1014.27
2023-03-27T06:54:27.992Z,1014.31
2023-03-27T06:55:27.987Z,1014.24
2023-03-27T06:56:27.995Z,1014.25
2023-03-27T06:57:27.993Z,1014.24
2023-03-27T06:58:28.031Z,1014.24
2023-03-27T06:59:28.005Z,1014.29
2023-03-27T07:00:27.961Z,1014.29
2023-03-27T07:01:28.017Z,1014.28
2023-03-27T07:02:28.033Z,1014.28
2023-03-27T07:03:27.959Z,1014.26
2023-03-27T07:04:27.944Z,1014.31
2023-03-27T07:05:28.009Z,1014.36
2023-03-27T07:06:27.942Z,1014.36
2023-03-27T07:07:27.949Z,1014.38
2023-03-27T07:08:27.967Z,1014.37
2023-03-27T07:09:27.926Z,1014.43
2023-03-27T07:10:27.942Z,1014.41
2023-03-27T07:11:29.420Z,1014.46
2023-03-27T07:12:27.928Z,1014.45
2023-03-27T07:13:27.924Z,1014.48
2023-03-27T07:14:27.918Z,1014.45
2023-03-27T07:15:27.933Z,1014.53
2023-03-27T07:16:28.072Z,1014.58
2023-03-27T07:17:37.868Z,1014.64
2023-03-27T07:18:27.943Z,1014.68
2023-03-27T07:19:27.878Z,1014.63
2023-03-27T07:20:27.898Z,1014.71
2023-03-27T07:21:27.878Z,1014.68
2023-03-27T07:22:27.896Z,1014.76
2023-03-27T07:23:27.874Z,1014.73
2023-03-27T07:24:27.880Z,1014.75
2023-03-27T07:25:27.880Z,1014.75
2023-03-27T07:26:27.853Z,1014.72
2023-03-27T07:27:27.851Z,1014.74
2023-03-27T07:28:27.850Z,1014.76
2023-03-27T07:29:27.849Z,1014.81
2023-03-27T07:30:27.854Z,1014.79
2023-03-27T07:31:40.196Z,1014.82
2023-03-27T07:32:36.729Z,1014.84
2023-03-27T07:33:27.894Z,1014.87
2023-03-27T07:34:27.824Z,1014.86
2023-03-27T07:35:27.875Z,1014.88
2023-03-27T07:36:27.800Z,1014.85
2023-03-27T07:37:27.812Z,1014.80
2023-03-27T07:38:27.794Z,1014.87
2023-03-27T07:39:27.819Z,1014.89
2023-03-27T07:40:38.888Z,1014.87
2023-03-27T07:41:27.800Z,1014.89
2023-03-27T07:42:27.784Z,1014.92
2023-03-27T07:43:27.790Z,1014.93
2023-03-27T07:44:27.789Z,1014.96
2023-03-27T07:45:27.817Z,1014.89
2023-03-27T07:46:27.926Z,1014.91
2023-03-27T07:47:27.844Z,1014.96
2023-03-27T07:48:27.792Z,1014.92
2023-03-27T07:49:39.729Z,1014.93
2023-03-27T07:50:27.760Z,1014.90
2023-03-27T07:51:27.750Z,1014.93
2023-03-27T07:52:27.783Z,1014.91
2023-03-27T07:53:33.949Z,1014.87
2023-03-27T07:54:27.780Z,1014.89
2023-03-27T07:55:27.739Z,1014.92
2023-03-27T07:56:27.718Z,1014.97
2023-03-27T07:57:27.875Z,1014.95
2023-03-27T07:58:27.883Z,1014.97
2023-03-27T07:59:27.713Z,1014.93
2023-03-27T08:00:27.726Z,1014.93
2023-03-27T08:01:27.718Z,1014.95
2023-03-27T08:02:27.739Z,1014.97
2023-03-27T08:03:27.850Z,1015.00
2023-03-27T08:04:27.860Z,1014.95
2023-03-27T08:05:27.703Z,1014.97
2023-03-27T08:06:27.703Z,1014.96
2023-03-27T08:07:27.695Z,1014.97
2023-03-27T08:08:27.707Z,1015.01
2023-03-27T08:09:27.678Z,1015.03
2023-03-27T08:10:27.678Z,1015.05
2023-03-27T08:11:30.745Z,1015.03
2023-03-27T08:12:27.663Z,1015.03
2023-03-27T08:13:27.664Z,1015.05
2023-03-27T08:14:27.658Z,1015.06
2023-03-27T08:15:27.661Z,1015.00
2023-03-27T08:16:27.765Z,1015.06
2023-03-27T08:17:27.858Z,1015.07
2023-03-27T08:18:27.692Z,1015.06
2023-03-27T08:19:27.646Z,1015.06
2023-03-27T08:20:27.644Z,1015.08
2023-03-27T08:21:27.629Z,1015.12
2023-03-27T08:22:27.611Z,1015.16
2023-03-27T08:23:27.724Z,1015.09
2023-03-27T08:24:27.616Z,1015.13
2023-03-27T08:25:27.613Z,1015.15
2023-03-27T08:26:27.604Z,1015.16
2023-03-27T08:27:27.609Z,1015.18
2023-03-27T08:28:27.580Z,1015.21
2023-03-27T08:29:27.606Z,1015.20
2023-03-27T08:30:27.595Z,1015.16
2023-03-27T08:31:27.605Z,1015.17
2023-03-27T08:32:27.591Z,1015.18
2023-03-27T08:33:27.567Z,1015.20
2023-03-27T08:34:27.569Z,1015.19
2023-03-27T08:35:27.616Z,1015.23
2023-03-27T08:36:27.543Z,1015.22
2023-03-27T08:37:27.566Z,1015.27
2023-03-27T08:38:27.563Z,1015.27
2023-03-27T08:39:27.534Z,1015.24
2023-03-27T08:40:27.587Z,1015.24
2023-03-27T08:41:27.530Z,1015.27
2023-03-27T08:42:27.537Z,1015.25
2023-03-27T08:43:27.549Z,1015.26
2023-03-27T08:44:27.515Z,1015.28
2023-03-27T08:45:27.549Z,1015.29
2023-03-27T08:46:27.573Z,1015.26
2023-03-27T08:47:27.566Z,1015.38
2023-03-27T08:48:27.510Z,1015.36
2023-03-27T08:49:27.522Z,1015.32
2023-03-27T08:50:27.500Z,1015.32
2023-03-27T08:51:27.513Z,1015.35
2023-03-27T08:52:27.490Z,1015.46
2023-03-27T08:53:29.369Z,1015.42
2023-03-27T08:54:27.499Z,1015.42
2023-03-27T08:55:27.466Z,1015.51
2023-03-27T08:56:27.509Z,1015.41
2023-03-27T08:57:27.472Z,1015.46
2023-03-27T08:58:27.465Z,1015.56
2023-03-27T08:59:27.460Z,1015.49
2023-03-27T09:00:27.454Z,1015.53
2023-03-27T09:01:27.507Z,1015.55
2023-03-27T09:02:27.515Z,1015.55
2023-03-27T09:03:27.593Z,1015.53
2023-03-27T09:04:27.447Z,1015.59
2023-03-27T09:05:27.457Z,1015.64
2023-03-27T09:06:27.460Z,1015.68
2023-03-27T09:07:27.479Z,1015.62
2023-03-27T09:08:27.414Z,1015.65
2023-03-27T09:09:27.410Z,1015.65
2023-03-27T09:10:27.414Z,1015.70
2023-03-27T09:11:27.429Z,1015.76
2023-03-27T09:12:27.405Z,1015.78
2023-03-27T09:13:27.391Z,1015.75
2023-03-27T09:14:27.398Z,1015.77
2023-03-27T09:15:27.405Z,1015.78
2023-03-27T09:16:27.459Z,1015.80
2023-03-27T09:17:27.400Z,1015.80
2023-03-27T09:18:27.374Z,1015.80
2023-03-27T09:19:27.377Z,1015.80
2023-03-27T09:20:27.382Z,1015.79
2023-03-27T09:21:27.356Z,1015.84
2023-03-27T09:22:27.352Z,1015.81
2023-03-27T09:23:27.375Z,1015.87
2023-03-27T09:24:27.351Z,1015.87
2023-03-27T09:25:27.355Z,1015.82
2023-03-27T09:26:27.335Z,1015.86
2023-03-27T09:27:27.345Z,1015.85
2023-03-27T09:28:27.350Z,1015.86
2023-03-27T09:29:27.346Z,1015.84
2023-03-27T09:30:27.330Z,1015.84
2023-03-27T09:31:27.371Z,1015.81
2023-03-27T09:32:27.325Z,1015.81
2023-03-27T09:33:27.327Z,1015.86
2023-03-27T09:34:27.308Z,1015.85
2023-03-27T09:35:27.399Z,1015.83
2023-03-27T09:36:27.290Z,1015.87
2023-03-27T09:37:27.308Z,1015.84
2023-03-27T09:38:27.282Z,1015.93
2023-03-27T09:39:27.318Z,1015.90
2023-03-27T09:40:27.297Z,1015.97
2023-03-27T09:41:27.285Z,1015.96
2023-03-27T09:42:27.298Z,1015.98
2023-03-27T09:43:27.263Z,1015.99
2023-03-27T09:44:27.254Z,1015.92
2023-03-27T09:45:27.272Z,1015.92
2023-03-27T09:46:27.314Z,1015.89
2023-03-27T09:47:27.297Z,1015.94
2023-03-27T09:48:27.243Z,1015.88
2023-03-27T09:49:27.236Z,1015.98
2023-03-27T09:50:27.895Z,1016.03
2023-03-27T09:51:27.249Z,1015.98
2023-03-27T09:52:27.221Z,1016.01
2023-03-27T09:53:27.240Z,1016.03
2023-03-27T09:54:27.217Z,1016.02
2023-03-27T09:55:27.265Z,1015.95
2023-03-27T09:56:27.223Z,1015.97
2023-03-27T09:57:27.204Z,1015.95
2023-03-27T09:58:27.193Z,1015.97
2023-03-27T09:59:27.208Z,1015.98
2023-03-27T10:00:27.201Z,1015.98
2023-03-27T10:01:27.220Z,1015.94
2023-03-27T10:02:27.244Z,1016.02
2023-03-27T10:03:27.247Z,1016.07
2023-03-27T10:04:27.195Z,1016.07
2023-03-27T10:05:27.194Z,1016.05
2023-03-27T10:06:27.154Z,1016.07
2023-03-27T10:07:27.178Z,1016.06
2023-03-27T10:08:27.578Z,1016.05
2023-03-27T10:09:27.165Z,1016.07
2023-03-27T10:10:27.140Z,1016.07
2023-03-27T10:11:27.160Z,1016.04
2023-03-27T10:12:27.137Z,1016.07
2023-03-27T10:13:27.129Z,1016.10
2023-03-27T10:14:27.132Z,1016.08
2023-03-27T10:15:27.124Z,1016.11
2023-03-27T10:16:27.136Z,1016.09
2023-03-27T10:17:27.204Z,1016.15
2023-03-27T10:18:27.163Z,1016.11
2023-03-27T10:19:27.117Z,1016.12
2023-03-27T10:20:27.108Z,1015.97
2023-03-27T10:21:27.112Z,1016.07
2023-03-27T10:22:27.089Z,1016.13
2023-03-27T10:23:27.170Z,1016.06
2023-03-27T10:24:27.111Z,1016.12
2023-03-27T10:25:27.098Z,1016.13
2023-03-27T10:26:27.075Z,1016.08
2023-03-27T10:27:27.104Z,1016.11
2023-03-27T10:28:27.101Z,1016.09
2023-03-27T10:29:27.077Z,1016.07
2023-03-27T10:30:27.055Z,1016.09
2023-03-27T10:31:27.075Z,1016.14
2023-03-27T10:32:27.113Z,1016.08
2023-03-27T10:33:27.058Z,1016.08
2023-03-27T10:34:27.046Z,1016.04
2023-03-27T10:35:27.082Z,1016.13
2023-03-27T10:36:27.057Z,1016.13
2023-03-27T10:37:27.040Z,1016.12
2023-03-27T10:38:27.040Z,1016.12
2023-03-27T10:39:27.034Z,1016.15
2023-03-27T10:40:27.028Z,1016.23
2023-03-27T10:41:31.630Z,1016.23
2023-03-27T10:42:27.006Z,1016.21
2023-03-27T10:43:27.037Z,1016.18
2023-03-27T10:44:26.994Z,1016.22
2023-03-27T10:45:26.990Z,1016.16
2023-03-27T10:46:27.054Z,1016.12
2023-03-27T10:47:27.027Z,1016.06
2023-03-27T10:48:26.985Z,1016.12
2023-03-27T10:49:26.971Z,1016.13
2023-03-27T10:50:26.977Z,1016.13
2023-03-27T10:51:35.944Z,1016.11
2023-03-27T10:52:26.995Z,1016.13
2023-03-27T10:53:27.006Z,1016.16
2023-03-27T10:54:26.966Z,1016.17
2023-03-27T10:55:26.970Z,1016.24
2023-03-27T10:56:26.952Z,1016.22
2023-03-27T10:57:26.935Z,1016.22
2023-03-27T10:58:26.932Z,1016.18
2023-03-27T10:59:40.610Z,1016.18
2023-03-27T11:00:26.913Z,1016.17
2023-03-27T11:01:27.035Z,1016.19
2023-03-27T11:02:26.931Z,1016.15
2023-03-27T11:03:26.948Z,1016.19
2023-03-27T11:04:26.901Z,1016.24
2023-03-27T11:05:26.970Z,1016.19
2023-03-27T11:06:26.899Z,1016.24
2023-03-27T11:07:26.891Z,1016.24
2023-03-27T11:08:26.883Z,1016.20
2023-03-27T11:09:26.896Z,1016.27
2023-03-27T11:10:26.902Z,1016.25
2023-03-27T11:11:26.896Z,1016.30
2023-03-27T11:12:26.862Z,1016.40
2023-03-27T11:13:26.878Z,1016.33
2023-03-27T11:14:26.866Z,1016.46
2023-03-27T11:15:26.884Z,1016.39
2023-03-27T11:16:26.895Z,1016.35
2023-03-27T11:17:29.180Z,1016.29
2023-03-27T11:18:26.862Z,1016.28
2023-03-27T11:19:26.831Z,1016.32
2023-03-27T11:20:26.838Z,1016.30
2023-03-27T11:21:26.834Z,1016.26
2023-03-27T11:22:26.825Z,1016.35
2023-03-27T11:23:26.835Z,1016.33
2023-03-27T11:24:26.831Z,1016.38
2023-03-27T11:25:26.804Z,1016.39
2023-03-27T11:26:26.801Z,1016.44
2023-03-27T11:27:26.817Z,1016.45
2023-03-27T11:28:26.814Z,1016.42
2023-03-27T11:29:26.783Z,1016.43
2023-03-27T11:30:26.797Z,1016.44
2023-03-27T11:31:26.897Z,1016.47
2023-03-27T11:32:26.791Z,1016.49
2023-03-27T11:33:26.774Z,1016.51
2023-03-27T11:34:28.983Z,1016.55
2023-03-27T11:35:26.771Z,1016.48
2023-03-27T11:36:26.755Z,1016.54
2023-03-27T11:37:26.747Z,1016.48
2023-03-27T11:38:26.749Z,1016.52
2023-03-27T11:39:26.756Z,1016.53
2023-03-27T11:40:26.745Z,1016.46
2023-03-27T11:41:26.744Z,1016.51
2023-03-27T11:42:26.736Z,1016.59
2023-03-27T11:43:26.728Z,1016.59
2023-03-27T11:44:26.731Z,1016.61
2023-03-27T11:45:26.716Z,1016.51
2023-03-27T11:46:26.755Z,1016.57
2023-03-27T11:47:26.742Z,1016.57
2023-03-27T11:48:26.725Z,1016.57
2023-03-27T11:49:26.701Z,1016.58
2023-03-27T11:50:26.705Z,1016.52
2023-03-27T11:51:26.695Z,1016.47
2023-03-27T11:52:26.693Z,1016.48
2023-03-27T11:53:26.699Z,1016.43
2023-03-27T11:54:26.698Z,1016.41
2023-03-27T11:55:26.688Z,1016.43
2023-03-27T11:56:26.706Z,1016.46
2023-03-27T11:57:26.671Z,1016.45
2023-03-27T11:58:26.695Z,1016.49
2023-03-27T11:59:26.653Z,1016.54
2023-03-27T12:00:26.651Z,1016.54
2023-03-27T12:01:26.645Z,1016.60
2023-03-27T12:02:26.762Z,1016.68
2023-03-27T12:03:26.708Z,1017.01
2023-03-27T12:04:26.680Z,1016.90
2023-03-27T12:05:26.625Z,1017.09
2023-03-27T12:06:26.639Z,1017.18